createdAt,value
2022-07-25T00:02:00.729Z,97466.70
2022-07-25T00:04:29.876Z,97471.80
2022-07-25T00:06:57.740Z,97470.64
2022-07-25T00:09:25.746Z,97475.75
2022-07-25T00:11:53.703Z,97481.48
2022-07-25T00:14:21.555Z,97475.19
2022-07-25T00:16:49.281Z,97482.67
2022-07-25T00:19:17.684Z,97473.41
2022-07-25T00:21:45.342Z,97474.00
2022-07-25T00:24:13.216Z,97476.75
2022-07-25T00:26:41.077Z,97475.75
2022-07-25T00:29:09.129Z,97478.13
2022-07-25T00:31:37.112Z,97471.05
2022-07-25T00:34:05.163Z,97482.25
2022-07-25T00:36:33.318Z,97484.22
2022-07-25T00:39:01.054Z,97482.06
2022-07-25T00:41:28.885Z,97481.84
2022-07-25T00:43:56.760Z,97477.74
2022-07-25T00:46:24.637Z,97475.17
2022-07-25T00:48:52.397Z,97478.33
2022-07-25T00:51:20.163Z,97479.11
2022-07-25T00:53:47.767Z,97478.33
2022-07-25T00:56:16.831Z,97484.02
2022-07-25T00:58:45.130Z,97477.14
2022-07-25T01:01:12.828Z,97479.89
2022-07-25T01:03:40.660Z,97486.59
2022-07-25T01:06:08.807Z,97484.02
2022-07-25T01:08:37.276Z,97485.80
2022-07-25T01:11:05.530Z,97485.98
2022-07-25T01:13:34.235Z,97484.22
2022-07-25T01:16:02.038Z,97483.63
2022-07-25T01:18:29.995Z,97479.88
2022-07-25T01:20:58.095Z,97479.88
2022-07-25T01:23:26.010Z,97469.67
2022-07-25T01:25:54.111Z,97474.59
2022-07-25T01:28:21.675Z,97474.77
2022-07-25T01:30:50.051Z,97481.06
2022-07-25T01:33:21.422Z,97481.47
2022-07-25T01:35:50.363Z,97472.01
2022-07-25T01:38:18.017Z,97476.91
2022-07-25T01:40:46.084Z,97477.50
2022-07-25T01:43:13.781Z,97475.74
2022-07-25T01:45:41.500Z,97475.55
2022-07-25T01:48:09.393Z,97476.14
2022-07-25T01:50:37.226Z,97482.61
2022-07-25T01:53:05.047Z,97478.66
2022-07-25T01:55:32.902Z,97472.19
2022-07-25T01:58:00.985Z,97478.47
2022-07-25T02:00:28.781Z,97467.47
2022-07-25T02:03:10.572Z,97466.86
2022-07-25T02:05:38.218Z,97464.50
2022-07-25T02:08:06.214Z,97459.80
2022-07-25T02:10:33.805Z,97467.80
2022-07-25T02:13:01.805Z,97468.17
2022-07-25T02:15:29.463Z,97475.45
2022-07-25T02:17:57.064Z,97480.36
2022-07-25T02:20:24.759Z,97474.45
2022-07-25T02:22:52.635Z,97473.45
2022-07-25T02:25:20.527Z,97474.03
2022-07-25T02:27:48.006Z,97470.67
2022-07-25T02:30:15.843Z,97475.79
2022-07-25T02:32:43.463Z,97481.67
2022-07-25T02:35:13.089Z,97484.77
2022-07-25T02:37:41.432Z,97482.81
2022-07-25T02:40:10.404Z,97483.41
2022-07-25T02:42:38.741Z,97483.41
2022-07-25T02:45:08.047Z,97486.72
2022-07-25T02:47:35.650Z,97477.32
2022-07-25T02:50:04.391Z,97477.70
2022-07-25T02:52:32.278Z,97480.28
2022-07-25T02:55:00.122Z,97479.69
2022-07-25T02:57:27.919Z,97476.94
2022-07-25T02:59:55.609Z,97483.81
2022-07-25T03:02:23.271Z,97488.13
2022-07-25T03:04:50.930Z,97491.28
2022-07-25T03:07:18.776Z,97493.44
2022-07-25T03:09:46.199Z,97494.05
2022-07-25T03:12:13.986Z,97490.72
2022-07-25T03:14:41.518Z,97498.78
2022-07-25T03:17:09.324Z,97496.64
2022-07-25T03:19:37.054Z,97499.78
2022-07-25T03:22:04.714Z,97501.37
2022-07-25T03:24:32.394Z,97504.12
2022-07-25T03:26:59.967Z,97507.28
2022-07-25T03:29:28.056Z,97502.42
2022-07-25T03:31:55.958Z,97509.88
2022-07-25T03:34:23.822Z,97510.28
2022-07-25T03:36:51.340Z,97506.35
2022-07-25T03:39:20.143Z,97501.42
2022-07-25T03:41:47.924Z,97509.48
2022-07-25T03:44:15.570Z,97508.72
2022-07-25T03:46:43.360Z,97510.67
2022-07-25T03:49:11.144Z,97512.45
2022-07-25T03:51:38.894Z,97504.59
2022-07-25T03:54:08.446Z,97502.06
2022-07-25T03:56:44.243Z,97503.63
2022-07-25T03:59:15.702Z,97499.50
2022-07-25T04:01:45.093Z,97496.75
2022-07-25T04:04:13.301Z,97498.73
2022-07-25T04:06:41.169Z,97497.55
2022-07-25T04:09:13.373Z,97497.15
2022-07-25T04:11:41.116Z,97492.06
2022-07-25T04:14:09.249Z,97497.56
2022-07-25T04:16:37.589Z,97488.72
2022-07-25T04:19:07.784Z,97491.25
2022-07-25T04:21:36.386Z,97494.23
2022-07-25T04:24:04.778Z,97488.50
2022-07-25T04:26:32.740Z,97491.25
2022-07-25T04:29:02.020Z,97494.01
2022-07-25T04:31:30.018Z,97492.44
2022-07-25T04:33:57.663Z,97488.13
2022-07-25T04:36:26.128Z,97489.69
2022-07-25T04:38:53.752Z,97483.80
2022-07-25T04:41:21.890Z,97492.66
2022-07-25T04:43:49.449Z,97489.50
2022-07-25T04:46:21.219Z,97495.98
2022-07-25T04:48:49.727Z,97494.61
2022-07-25T04:51:18.651Z,97493.64
2022-07-25T04:53:46.675Z,97493.25
2022-07-25T04:56:14.279Z,97498.36
2022-07-25T04:58:42.212Z,97499.56
2022-07-25T05:01:10.103Z,97502.11
2022-07-25T05:03:37.731Z,97494.83
2022-07-25T05:06:06.101Z,97502.91
2022-07-25T05:08:33.900Z,97506.27
2022-07-25T05:11:02.495Z,97497.78
2022-07-25T05:13:30.233Z,97503.11
2022-07-25T05:15:57.946Z,97501.92
2022-07-25T05:18:25.792Z,97505.27
2022-07-25T05:20:53.573Z,97501.32
2022-07-25T05:23:22.043Z,97503.84
2022-07-25T05:25:49.826Z,97508.51
2022-07-25T05:28:19.089Z,97505.75
2022-07-25T05:30:46.577Z,97497.80
2022-07-25T05:33:14.436Z,97500.47
2022-07-25T05:35:42.275Z,97497.25
2022-07-25T05:38:09.862Z,97490.69
2022-07-25T05:40:37.437Z,97492.81
2022-07-25T05:43:05.154Z,97488.42
2022-07-25T05:45:32.814Z,97490.36
2022-07-25T05:48:00.516Z,97482.84
2022-07-25T05:50:28.265Z,97482.81
2022-07-25T05:52:56.406Z,97475.28
2022-07-25T05:55:24.147Z,97475.66
2022-07-25T05:57:51.921Z,97470.65
2022-07-25T06:00:19.427Z,97466.06
2022-07-25T06:02:47.202Z,97469.37
2022-07-25T06:05:15.068Z,97468.32
2022-07-25T06:07:42.831Z,97457.59
2022-07-25T06:10:10.624Z,97458.86
2022-07-25T06:12:38.299Z,97459.39
2022-07-25T06:15:07.252Z,97451.60
2022-07-25T06:17:36.754Z,97454.64
2022-07-25T06:20:05.421Z,97451.56
2022-07-25T06:22:33.358Z,97451.05
2022-07-25T06:25:05.238Z,97454.48
2022-07-25T06:27:32.920Z,97449.22
2022-07-25T06:30:00.868Z,97455.27
2022-07-25T06:32:28.589Z,97454.19
2022-07-25T06:34:56.448Z,97448.86
2022-07-25T06:37:24.000Z,97449.90
2022-07-25T06:39:51.605Z,97443.91
2022-07-25T06:42:19.703Z,97437.67
2022-07-25T06:44:47.327Z,97438.15
2022-07-25T06:47:15.346Z,97437.27
2022-07-25T06:49:42.896Z,97434.61
2022-07-25T06:52:10.521Z,97430.75
2022-07-25T06:54:38.237Z,97431.97
2022-07-25T06:57:05.889Z,97435.91
2022-07-25T06:59:33.450Z,97427.35
2022-07-25T07:02:01.850Z,97432.63
2022-07-25T07:04:29.737Z,97430.81
2022-07-25T07:06:57.462Z,97432.58
2022-07-25T07:09:25.194Z,97437.70
2022-07-25T07:11:52.931Z,97426.30
2022-07-25T07:14:20.750Z,97429.14
2022-07-25T07:16:48.490Z,97426.80
2022-07-25T07:19:17.670Z,97425.92
2022-07-25T07:21:45.331Z,97426.56
2022-07-25T07:24:23.281Z,97425.14
2022-07-25T07:26:43.294Z,97430.88
2022-07-25T07:29:11.099Z,97430.73
2022-07-25T07:31:38.887Z,97429.69
2022-07-25T07:34:07.015Z,97425.97
2022-07-25T07:36:34.800Z,97427.91
2022-07-25T07:39:02.678Z,97431.43
2022-07-25T07:41:30.547Z,97423.97
2022-07-25T07:43:58.119Z,97421.28
2022-07-25T07:46:25.763Z,97420.17
2022-07-25T07:48:53.509Z,97424.59
2022-07-25T07:51:21.036Z,97421.05
2022-07-25T07:54:07.145Z,97427.91
2022-07-25T07:56:34.955Z,97424.61
2022-07-25T07:59:03.214Z,97422.61
2022-07-25T08:01:31.383Z,97419.07
2022-07-25T08:03:59.303Z,97423.22
2022-07-25T08:06:27.486Z,97421.19
2022-07-25T08:08:55.885Z,97420.63
2022-07-25T08:11:23.554Z,97413.20
2022-07-25T08:13:50.978Z,97408.08
2022-07-25T08:16:18.882Z,97410.78
2022-07-25T08:18:46.651Z,97415.58
2022-07-25T08:21:14.187Z,97409.31
2022-07-25T08:23:41.899Z,97412.61
2022-07-25T08:26:09.449Z,97415.20
2022-07-25T08:28:37.042Z,97408.09
2022-07-25T08:31:04.819Z,97401.87
2022-07-25T08:33:32.742Z,97397.22
2022-07-25T08:36:00.771Z,97409.66
2022-07-25T08:38:28.876Z,97408.80
2022-07-25T08:40:59.216Z,97410.45
2022-07-25T08:43:31.136Z,97415.45
2022-07-25T08:46:01.982Z,97406.91
2022-07-25T08:48:29.982Z,97407.39
2022-07-25T08:50:58.073Z,97409.86
2022-07-25T08:53:34.960Z,97407.92
2022-07-25T08:55:55.994Z,97407.33
2022-07-25T08:58:23.539Z,97405.38
2022-07-25T09:00:51.467Z,97406.23
2022-07-25T09:03:19.236Z,97400.43
2022-07-25T09:05:47.137Z,97400.56
2022-07-25T09:08:17.703Z,97398.22
2022-07-25T09:10:50.448Z,97397.88
2022-07-25T09:13:20.781Z,97389.41
2022-07-25T09:15:56.215Z,97392.95
2022-07-25T09:18:26.898Z,97392.31
2022-07-25T09:20:58.644Z,97394.64
2022-07-25T09:23:38.407Z,97392.18
2022-07-25T09:26:10.193Z,97387.78
2022-07-25T09:28:47.868Z,97389.69
2022-07-25T09:31:18.623Z,97388.66
2022-07-25T09:33:57.291Z,97394.31
2022-07-25T09:36:25.213Z,97388.42
2022-07-25T09:39:00.355Z,97385.78
2022-07-25T09:41:34.765Z,97390.40
2022-07-25T09:44:06.513Z,97386.36
2022-07-25T09:46:34.414Z,97382.70
2022-07-25T09:49:02.100Z,97376.53
2022-07-25T09:51:30.540Z,97373.16
2022-07-25T09:53:58.301Z,97376.30
2022-07-25T09:56:25.812Z,97375.61
2022-07-25T09:58:53.441Z,97373.51
2022-07-25T10:01:29.020Z,97374.47
2022-07-25T10:04:16.338Z,97374.95
2022-07-25T10:06:52.053Z,97366.91
2022-07-25T10:09:20.117Z,97364.41
2022-07-25T10:12:13.473Z,97358.02
2022-07-25T10:14:41.731Z,97358.65
2022-07-25T10:17:13.203Z,97354.44
2022-07-25T10:19:52.870Z,97357.52
2022-07-25T10:22:29.441Z,97355.15
2022-07-25T10:24:48.313Z,97349.50
2022-07-25T10:27:24.452Z,97338.88
2022-07-25T10:29:54.971Z,97343.69
2022-07-25T10:32:26.125Z,97337.43
2022-07-25T10:34:54.781Z,97345.67
2022-07-25T10:37:28.638Z,97342.61
2022-07-25T10:39:56.301Z,97340.95
2022-07-25T10:42:29.310Z,97351.95
2022-07-25T10:44:57.034Z,97347.48
2022-07-25T10:47:27.749Z,97343.86
2022-07-25T10:52:32.307Z,97339.04
2022-07-25T10:55:01.441Z,97335.00
2022-07-25T10:57:31.887Z,97330.05
2022-07-25T11:00:08.546Z,97324.48
2022-07-25T11:02:36.726Z,97325.11
2022-07-25T11:05:06.067Z,97319.60
2022-07-25T11:07:36.948Z,97318.69
2022-07-25T11:10:06.410Z,97318.39
2022-07-25T11:12:33.968Z,97319.48
2022-07-25T11:15:05.506Z,97312.83
2022-07-25T11:17:33.896Z,97306.74
2022-07-25T11:20:08.624Z,97295.38
2022-07-25T11:22:36.365Z,97298.80
2022-07-25T11:25:12.279Z,97288.25
2022-07-25T11:27:39.835Z,97290.39
2022-07-25T11:30:13.759Z,97282.73
2022-07-25T11:32:53.997Z,97276.48
2022-07-25T11:35:25.813Z,97277.09
2022-07-25T11:37:54.518Z,97273.93
2022-07-25T11:40:22.922Z,97263.78
2022-07-25T11:42:53.785Z,97266.50
2022-07-25T11:45:25.421Z,97260.14
2022-07-25T11:48:11.278Z,97265.28
2022-07-25T11:50:43.469Z,97252.39
2022-07-25T11:53:14.905Z,97256.70
2022-07-25T11:55:44.605Z,97252.40
2022-07-25T11:58:14.285Z,97256.84
2022-07-25T12:00:46.053Z,97252.21
2022-07-25T12:03:20.147Z,97243.39
2022-07-25T12:05:48.964Z,97247.36
2022-07-25T12:08:19.953Z,97245.73
2022-07-25T12:10:51.175Z,97244.37
2022-07-25T12:13:25.800Z,97239.38
2022-07-25T12:15:56.341Z,97234.52
2022-07-25T12:18:24.296Z,97240.03
2022-07-25T12:20:52.712Z,97234.80
2022-07-25T12:23:21.516Z,97233.65
2022-07-25T12:25:50.275Z,97231.70
2022-07-25T12:28:18.146Z,97224.12
2022-07-25T12:30:51.617Z,97220.62
2022-07-25T12:33:17.693Z,97219.18
2022-07-25T12:35:45.319Z,97214.30
2022-07-25T12:38:13.960Z,97214.08
2022-07-25T12:40:41.724Z,97206.56
2022-07-25T12:43:09.628Z,97198.69
2022-07-25T12:45:37.480Z,97197.75
2022-07-25T12:48:05.877Z,97201.41
2022-07-25T12:50:33.482Z,97197.88
2022-07-25T12:53:01.688Z,97188.70
2022-07-25T12:55:29.201Z,97189.69
2022-07-25T12:57:56.837Z,97186.95
2022-07-25T13:00:24.826Z,97188.20
2022-07-25T13:02:55.325Z,97183.91
2022-07-25T13:05:25.165Z,97187.59
2022-07-25T13:07:52.905Z,97181.53
2022-07-25T13:10:20.808Z,97180.09
2022-07-25T13:12:48.560Z,97179.25
2022-07-25T13:15:18.016Z,97179.08
2022-07-25T13:17:45.872Z,97179.81
2022-07-25T13:20:15.176Z,97176.27
2022-07-25T13:22:43.074Z,97166.87
2022-07-25T13:25:10.852Z,97167.58
2022-07-25T13:27:38.699Z,97163.10
2022-07-25T13:30:07.976Z,97164.27
2022-07-25T13:32:36.246Z,97163.25
2022-07-25T13:35:04.446Z,97168.69
2022-07-25T13:37:32.847Z,97162.66
2022-07-25T13:40:00.492Z,97154.20
2022-07-25T13:42:28.364Z,97153.23
2022-07-25T13:44:55.718Z,97145.36
2022-07-25T13:47:28.275Z,97151.63
2022-07-25T13:49:53.836Z,97155.09
2022-07-25T13:52:21.594Z,97150.63
2022-07-25T13:54:49.300Z,97149.94
2022-07-25T13:57:17.135Z,97148.47
2022-07-25T13:59:44.798Z,97145.56
2022-07-25T14:02:12.464Z,97140.77
2022-07-25T14:04:40.586Z,97145.22
2022-07-25T14:07:08.078Z,97135.13
2022-07-25T14:09:35.818Z,97138.38
2022-07-25T14:12:04.000Z,97134.63
2022-07-25T14:14:31.609Z,97130.47
2022-07-25T14:16:59.326Z,97129.60
2022-07-25T14:19:27.130Z,97119.65
2022-07-25T14:21:54.832Z,97120.86
2022-07-25T14:24:22.597Z,97126.73
2022-07-25T14:26:50.399Z,97114.36
2022-07-25T14:29:18.173Z,97113.22
2022-07-25T14:31:46.011Z,97114.06
2022-07-25T14:34:15.302Z,97109.28
2022-07-25T14:36:44.161Z,97109.53
2022-07-25T14:39:11.865Z,97101.00
2022-07-25T14:41:40.081Z,97097.04
2022-07-25T14:44:08.954Z,97097.39
2022-07-25T14:46:36.649Z,97098.91
2022-07-25T14:49:05.206Z,97092.72
2022-07-25T14:51:33.038Z,97093.41
2022-07-25T14:54:00.767Z,97089.06
2022-07-25T14:56:28.539Z,97092.02
2022-07-25T14:58:56.778Z,97097.16
2022-07-25T15:01:25.416Z,97107.02
2022-07-25T15:03:55.810Z,97092.31
2022-07-25T15:06:28.750Z,97101.99
2022-07-25T15:08:54.108Z,97092.95
2022-07-25T15:11:23.595Z,97092.53
2022-07-25T15:13:52.468Z,97084.74
2022-07-25T15:16:20.160Z,97082.52
2022-07-25T15:19:14.371Z,97077.55
2022-07-25T15:21:17.411Z,97078.95
2022-07-25T15:23:45.094Z,97076.42
2022-07-25T15:26:12.872Z,97077.15
2022-07-25T15:28:40.539Z,97070.70
2022-07-25T15:31:08.193Z,97069.86
2022-07-25T15:33:36.437Z,97063.81
2022-07-25T15:36:04.490Z,97060.57
2022-07-25T15:38:33.603Z,97062.38
2022-07-25T15:41:01.153Z,97062.80
2022-07-25T15:43:28.735Z,97061.99
2022-07-25T15:45:56.384Z,97058.93
2022-07-25T15:48:24.346Z,97054.31
2022-07-25T15:50:52.777Z,97061.58
2022-07-25T15:53:20.753Z,97056.28
2022-07-25T15:55:48.485Z,97051.78
2022-07-25T15:58:16.418Z,97065.77
2022-07-25T16:00:44.282Z,97059.00
2022-07-25T16:03:13.312Z,97056.47
2022-07-25T16:05:44.367Z,97059.84
2022-07-25T16:08:12.215Z,97054.80
2022-07-25T16:10:40.177Z,97058.11
2022-07-25T16:13:07.848Z,97055.98
2022-07-25T16:15:35.601Z,97059.73
2022-07-25T16:18:03.525Z,97050.73
2022-07-25T16:20:32.294Z,97050.63
2022-07-25T16:23:01.177Z,97053.75
2022-07-25T16:25:30.188Z,97045.53
2022-07-25T16:27:59.481Z,97048.67
2022-07-25T16:30:28.080Z,97043.08
2022-07-25T16:32:55.945Z,97045.59
2022-07-25T16:35:24.558Z,97045.73
2022-07-25T16:37:52.348Z,97044.34
2022-07-25T16:40:21.187Z,97053.05
2022-07-25T16:42:50.062Z,97049.62
2022-07-25T16:45:18.135Z,97046.05
2022-07-25T16:47:46.648Z,97045.45
2022-07-25T16:50:14.522Z,97049.20
2022-07-25T16:52:42.211Z,97049.86
2022-07-25T16:55:10.088Z,97050.06
2022-07-25T16:57:38.364Z,97055.38
2022-07-25T17:00:08.831Z,97053.09
2022-07-25T17:02:36.919Z,97054.20
2022-07-25T17:05:05.653Z,97043.80
2022-07-25T17:07:34.247Z,97046.01
2022-07-25T17:10:02.352Z,97049.28
2022-07-25T17:12:30.212Z,97052.41
2022-07-25T17:14:57.784Z,97059.58
2022-07-25T17:17:25.424Z,97055.42
2022-07-25T17:19:57.946Z,97060.26
2022-07-25T17:22:22.638Z,97058.72
2022-07-25T17:24:50.569Z,97059.66
2022-07-25T17:27:18.011Z,97060.59
2022-07-25T17:29:45.545Z,97055.00
2022-07-25T17:32:13.222Z,97065.89
2022-07-25T17:34:40.781Z,97066.83
2022-07-25T17:37:08.493Z,97056.88
2022-07-25T17:39:36.311Z,97069.09
2022-07-25T17:42:05.967Z,97060.42
2022-07-25T17:44:34.942Z,97061.78
2022-07-25T17:47:03.590Z,97065.66
2022-07-25T17:49:31.422Z,97064.41
2022-07-25T17:51:59.104Z,97063.30
2022-07-25T17:54:26.890Z,97058.95
2022-07-25T17:56:54.443Z,97064.49
2022-07-25T17:59:22.350Z,97066.61
2022-07-25T18:01:50.099Z,97070.92
2022-07-25T18:04:17.872Z,97066.41
2022-07-25T18:06:45.696Z,97070.36
2022-07-25T18:09:15.213Z,97072.56
2022-07-25T18:11:43.138Z,97075.23
2022-07-25T18:14:11.388Z,97075.13
2022-07-25T18:16:40.990Z,97079.98
2022-07-25T18:19:08.474Z,97079.39
2022-07-25T18:21:36.115Z,97082.39
2022-07-25T18:24:04.863Z,97085.22
2022-07-25T18:26:34.123Z,97083.25
2022-07-25T18:29:01.799Z,97084.21
2022-07-25T18:31:29.781Z,97090.70
2022-07-25T18:33:57.416Z,97088.56
2022-07-25T18:36:25.432Z,97090.73
2022-07-25T18:38:53.373Z,97095.34
2022-07-25T18:41:30.643Z,97093.33
2022-07-25T18:43:53.322Z,97092.68
2022-07-25T18:46:21.167Z,97092.25
2022-07-25T18:48:48.955Z,97092.09
2022-07-25T18:51:16.985Z,97094.08
2022-07-25T18:53:48.373Z,97094.72
2022-07-25T18:56:15.353Z,97095.36
2022-07-25T18:58:43.290Z,97104.50
2022-07-25T19:01:11.664Z,97102.66
2022-07-25T19:03:40.118Z,97101.64
2022-07-25T19:06:09.175Z,97108.44
2022-07-25T19:08:36.891Z,97105.00
2022-07-25T19:11:05.278Z,97110.20
2022-07-25T19:13:50.909Z,97114.04
2022-07-25T19:16:03.947Z,97118.98
2022-07-25T19:18:34.325Z,97121.81
2022-07-25T19:21:02.438Z,97117.81
2022-07-25T19:23:30.514Z,97119.20
2022-07-25T19:25:58.360Z,97122.94
2022-07-25T19:28:25.904Z,97120.66
2022-07-25T19:30:53.716Z,97122.64
2022-07-25T19:33:21.573Z,97123.67
2022-07-25T19:35:49.220Z,97130.59
2022-07-25T19:38:16.889Z,97127.59
2022-07-25T19:40:45.968Z,97128.76
2022-07-25T19:43:13.702Z,97130.12
2022-07-25T19:45:41.545Z,97129.08
2022-07-25T19:48:09.073Z,97129.38
2022-07-25T19:50:36.925Z,97125.36
2022-07-25T19:53:04.541Z,97131.84
2022-07-25T19:55:32.429Z,97130.36
2022-07-25T19:57:59.935Z,97134.98
2022-07-25T20:00:27.853Z,97134.87
2022-07-25T20:02:55.636Z,97136.15
2022-07-25T20:05:23.410Z,97134.31
2022-07-25T20:07:51.520Z,97131.21
2022-07-25T20:10:19.204Z,97137.58
2022-07-25T20:12:46.876Z,97140.84
2022-07-25T20:15:14.410Z,97141.52
2022-07-25T20:17:42.601Z,97144.94
2022-07-25T20:20:11.011Z,97132.03
2022-07-25T20:22:38.877Z,97133.65
2022-07-25T20:25:10.610Z,97138.64
2022-07-25T20:27:38.488Z,97145.61
2022-07-25T20:30:08.889Z,97147.05
2022-07-25T20:32:37.244Z,97155.00
2022-07-25T20:35:06.375Z,97144.42
2022-07-25T20:37:34.307Z,97148.63
2022-07-25T20:40:05.492Z,97150.41
2022-07-25T20:42:33.023Z,97152.28
2022-07-25T20:45:00.726Z,97157.86
2022-07-25T20:47:28.392Z,97150.22
2022-07-25T20:49:56.014Z,97162.14
2022-07-25T20:52:23.936Z,97156.89
2022-07-25T20:54:51.628Z,97160.70
2022-07-25T20:57:19.337Z,97166.89
2022-07-25T20:59:46.962Z,97168.92
2022-07-25T21:02:16.654Z,97166.42
2022-07-25T21:04:46.844Z,97169.84
2022-07-25T21:07:17.313Z,97172.05
2022-07-25T21:09:45.632Z,97169.75
2022-07-25T21:12:13.322Z,97170.41
2022-07-25T21:14:40.869Z,97167.73
2022-07-25T21:17:09.307Z,97169.76
2022-07-25T21:19:37.158Z,97170.22
2022-07-25T21:22:05.280Z,97179.16
2022-07-25T21:24:32.879Z,97177.42
2022-07-25T21:27:01.318Z,97177.28
2022-07-25T21:29:29.315Z,97172.02
2022-07-25T21:31:57.214Z,97170.50
2022-07-25T21:34:25.031Z,97169.73
2022-07-25T21:36:52.628Z,97175.89
2022-07-25T21:39:20.081Z,97167.47
2022-07-25T21:41:47.827Z,97166.55
2022-07-25T21:44:17.604Z,97160.68
2022-07-25T21:46:45.596Z,97155.98
2022-07-25T21:49:40.847Z,97154.45
2022-07-25T21:52:01.221Z,97156.72
2022-07-25T21:54:28.847Z,97156.60
2022-07-25T21:56:56.652Z,97158.05
2022-07-25T21:59:24.333Z,97153.98
2022-07-25T22:01:51.988Z,97154.25
2022-07-25T22:04:19.936Z,97153.89
2022-07-25T22:06:47.844Z,97151.16
2022-07-25T22:09:15.689Z,97157.87
2022-07-25T22:11:46.530Z,97151.42
2022-07-25T22:14:15.477Z,97153.02
2022-07-25T22:16:43.587Z,97154.84
2022-07-25T22:19:12.145Z,97155.64
2022-07-25T22:21:40.872Z,97161.60
2022-07-25T22:24:09.789Z,97152.22
2022-07-25T22:26:37.736Z,97158.77
2022-07-25T22:29:06.078Z,97161.59
2022-07-25T22:31:34.015Z,97156.48
2022-07-25T22:34:01.948Z,97148.48
2022-07-25T22:36:29.717Z,97147.72
2022-07-25T22:38:57.212Z,97152.29
2022-07-25T22:41:24.960Z,97153.69
2022-07-25T22:43:58.271Z,97153.31
2022-07-25T22:46:22.938Z,97148.23
2022-07-25T22:48:50.771Z,97150.42
2022-07-25T22:51:18.412Z,97139.03
2022-07-25T22:53:46.136Z,97148.13
2022-07-25T22:56:14.034Z,97148.94
2022-07-25T22:58:42.359Z,97148.36
2022-07-25T23:01:10.411Z,97152.33
2022-07-25T23:03:38.330Z,97150.00
2022-07-25T23:06:06.265Z,97150.61
2022-07-25T23:08:33.955Z,97154.38
2022-07-25T23:11:03.181Z,97155.55
2022-07-25T23:13:31.702Z,97145.36
2022-07-25T23:15:59.394Z,97144.97
2022-07-25T23:18:27.120Z,97144.98
2022-07-25T23:20:54.963Z,97149.52
2022-07-25T23:23:22.575Z,97146.79
2022-07-25T23:25:50.617Z,97141.48
2022-07-25T23:28:18.435Z,97146.40
2022-07-25T23:30:46.130Z,97144.06
2022-07-25T23:33:13.679Z,97144.66
2022-07-25T23:35:41.755Z,97145.84
2022-07-25T23:38:09.453Z,97133.47
2022-07-25T23:40:37.094Z,97137.19
2022-07-25T23:43:04.829Z,97130.92
2022-07-25T23:45:34.318Z,97134.08
2022-07-25T23:48:03.842Z,97138.20
2022-07-25T23:50:31.684Z,97131.73
2022-07-25T23:52:59.290Z,97130.18
2022-07-25T23:55:27.091Z,97134.89
2022-07-25T23:57:54.920Z,97132.15
